createdAt,value
2018-11-03T00:01:56.299Z,71.20
2018-11-03T00:04:24.778Z,71.34
2018-11-03T00:06:53.258Z,70.96
2018-11-03T00:09:21.763Z,71.92
2018-11-03T00:11:50.251Z,71.87
2018-11-03T00:14:18.732Z,71.85
2018-11-03T00:16:47.238Z,71.91
2018-11-03T00:19:15.723Z,71.28
2018-11-03T00:21:44.212Z,71.79
2018-11-03T00:24:12.706Z,71.40
2018-11-03T00:26:41.190Z,72.03
2018-11-03T00:29:09.672Z,71.93
2018-11-03T00:31:38.155Z,71.61
2018-11-03T00:34:06.761Z,72.00
2018-11-03T00:36:35.231Z,71.36
2018-11-03T00:39:05.204Z,71.30
2018-11-03T00:41:33.684Z,71.60
2018-11-03T00:44:02.172Z,71.96
2018-11-03T00:46:30.638Z,71.25
2018-11-03T00:48:59.103Z,71.80
2018-11-03T00:51:27.585Z,71.47
2018-11-03T00:53:56.057Z,71.42
2018-11-03T00:56:24.563Z,71.87
2018-11-03T00:58:53.054Z,71.91
2018-11-03T01:01:21.524Z,71.26
2018-11-03T01:03:50.008Z,71.49
2018-11-03T01:06:18.478Z,71.34
2018-11-03T01:08:46.951Z,71.31
2018-11-03T01:11:15.440Z,71.29
2018-11-03T01:13:43.941Z,71.14
2018-11-03T01:16:12.400Z,71.34
2018-11-03T01:18:40.883Z,71.92
2018-11-03T01:21:09.359Z,71.25
2018-11-03T01:23:37.879Z,71.17
2018-11-03T01:26:06.388Z,70.95
2018-11-03T01:28:34.874Z,71.83
2018-11-03T01:31:03.348Z,71.27
2018-11-03T01:33:31.802Z,71.21
2018-11-03T01:36:00.253Z,71.77
2018-11-03T01:38:28.724Z,71.41
2018-11-03T01:40:57.182Z,71.72
2018-11-03T01:43:25.682Z,71.58
2018-11-03T01:45:54.164Z,71.53
2018-11-03T01:48:22.637Z,71.24
2018-11-03T01:50:51.101Z,71.44
2018-11-03T01:53:19.588Z,70.57
2018-11-03T01:55:48.061Z,70.72
2018-11-03T01:58:16.540Z,70.90
2018-11-03T02:00:45.336Z,70.65
2018-11-03T02:03:13.815Z,70.72
2018-11-03T02:05:42.307Z,71.07
2018-11-03T02:08:10.813Z,71.25
2018-11-03T02:10:39.283Z,70.96
2018-11-03T02:13:07.773Z,70.71
2018-11-03T02:15:36.242Z,71.39
2018-11-03T02:18:04.717Z,70.64
2018-11-03T02:20:33.216Z,70.71
2018-11-03T02:23:01.700Z,70.81
2018-11-03T02:25:30.174Z,71.09
2018-11-03T02:27:58.630Z,71.04
2018-11-03T02:30:27.105Z,70.63
2018-11-03T02:32:55.601Z,70.64
2018-11-03T02:35:24.080Z,70.96
2018-11-03T02:37:52.557Z,70.92
2018-11-03T02:40:21.041Z,70.41
2018-11-03T02:42:49.567Z,71.33
2018-11-03T02:45:18.042Z,71.18
2018-11-03T02:47:46.505Z,70.77
2018-11-03T02:50:15.051Z,70.83
2018-11-03T02:52:43.738Z,70.28
2018-11-03T02:55:12.154Z,70.83
2018-11-03T02:57:40.623Z,71.01
2018-11-03T03:00:10.375Z,70.53
2018-11-03T03:02:38.843Z,70.58
2018-11-03T03:05:08.439Z,70.85
2018-11-03T03:07:36.930Z,70.92
2018-11-03T03:10:07.366Z,70.48
2018-11-03T03:12:36.239Z,70.78
2018-11-03T03:15:05.242Z,70.88
2018-11-03T03:17:33.715Z,71.11
2018-11-03T03:20:02.188Z,70.40
2018-11-03T03:22:30.740Z,70.51
2018-11-03T03:24:59.323Z,70.80
2018-11-03T03:27:27.799Z,70.69
2018-11-03T03:29:56.275Z,71.15
2018-11-03T03:32:24.750Z,70.96
2018-11-03T03:34:53.241Z,70.68
2018-11-03T03:37:21.723Z,70.85
2018-11-03T03:39:50.247Z,70.56
2018-11-03T03:42:18.804Z,70.39
2018-11-03T03:44:47.294Z,70.42
2018-11-03T03:47:15.783Z,70.83
2018-11-03T03:49:44.281Z,70.92
2018-11-03T03:52:12.773Z,70.93
2018-11-03T03:54:41.271Z,70.19
2018-11-03T03:57:09.774Z,70.26
2018-11-03T03:59:38.279Z,70.61
2018-11-03T04:02:06.849Z,70.33
2018-11-03T04:04:35.365Z,70.35
2018-11-03T04:07:03.842Z,70.19
2018-11-03T04:09:32.311Z,70.14
2018-11-03T04:12:00.799Z,70.22
2018-11-03T04:14:29.287Z,69.99
2018-11-03T04:16:57.754Z,70.71
2018-11-03T04:19:26.281Z,70.35
2018-11-03T04:21:54.727Z,70.58
2018-11-03T04:24:23.207Z,70.65
2018-11-03T04:26:51.708Z,70.45
2018-11-03T04:29:20.188Z,70.45
2018-11-03T04:31:48.671Z,70.59
2018-11-03T04:34:17.178Z,70.18
2018-11-03T04:36:45.668Z,70.21
2018-11-03T04:39:14.159Z,70.64
2018-11-03T04:41:42.657Z,70.12
2018-11-03T04:44:11.154Z,70.41
2018-11-03T04:46:39.635Z,70.33
2018-11-03T04:49:08.133Z,70.47
2018-11-03T04:51:36.642Z,70.51
2018-11-03T04:54:05.132Z,69.77
2018-11-03T04:56:33.636Z,70.27
2018-11-03T04:59:02.120Z,69.76
2018-11-03T05:01:30.583Z,69.76
2018-11-03T05:03:59.099Z,69.90
2018-11-03T05:06:27.611Z,70.22
2018-11-03T05:08:56.098Z,70.21
2018-11-03T05:11:24.575Z,70.26
2018-11-03T05:13:53.067Z,70.38
2018-11-03T05:16:21.562Z,70.13
2018-11-03T05:18:50.056Z,70.54
2018-11-03T05:21:18.631Z,70.45
2018-11-03T05:23:47.033Z,70.36
2018-11-03T05:26:15.517Z,69.96
2018-11-03T05:28:44.002Z,70.63
2018-11-03T05:31:12.556Z,70.53
2018-11-03T05:33:40.997Z,69.84
2018-11-03T05:36:09.497Z,70.32
2018-11-03T05:38:37.994Z,70.37
2018-11-03T05:41:06.708Z,69.75
2018-11-03T05:43:35.178Z,69.86
2018-11-03T05:46:03.662Z,70.23
2018-11-03T05:48:32.160Z,70.03
2018-11-03T05:51:00.647Z,70.37
2018-11-03T05:53:29.171Z,69.94
2018-11-03T05:55:57.685Z,70.02
2018-11-03T05:58:26.207Z,69.95
2018-11-03T06:00:54.748Z,70.54
2018-11-03T06:03:23.260Z,69.98
2018-11-03T06:05:51.727Z,70.31
2018-11-03T06:08:20.302Z,69.73
2018-11-03T06:10:48.790Z,70.13
2018-11-03T06:13:17.312Z,69.95
2018-11-03T06:15:45.842Z,69.43
2018-11-03T06:18:14.336Z,69.70
2018-11-03T06:20:42.848Z,70.09
2018-11-03T06:23:11.467Z,70.14
2018-11-03T06:25:39.819Z,69.66
2018-11-03T06:28:08.447Z,70.33
2018-11-03T06:30:36.826Z,70.34
2018-11-03T06:33:05.574Z,70.12
2018-11-03T06:35:34.068Z,69.90
2018-11-03T06:38:02.542Z,69.95
2018-11-03T06:40:31.035Z,70.51
2018-11-03T06:42:59.528Z,70.56
2018-11-03T06:45:28.023Z,70.03
2018-11-03T06:47:56.494Z,70.47
2018-11-03T06:50:25.012Z,69.86
2018-11-03T06:52:53.506Z,70.39
2018-11-03T06:55:21.983Z,70.05
2018-11-03T06:57:50.480Z,70.06
2018-11-03T07:00:18.964Z,70.42
2018-11-03T07:02:47.460Z,69.86
2018-11-03T07:05:16.019Z,69.92
2018-11-03T07:07:44.472Z,69.82
2018-11-03T07:10:12.970Z,70.40
2018-11-03T07:12:41.744Z,69.91
2018-11-03T07:15:10.047Z,70.36
2018-11-03T07:17:38.525Z,69.99
2018-11-03T07:20:09.066Z,69.71
2018-11-03T07:22:37.602Z,70.37
2018-11-03T07:25:06.621Z,70.41
2018-11-03T07:27:35.104Z,69.82
2018-11-03T07:30:03.675Z,69.75
2018-11-03T07:32:32.164Z,70.40
2018-11-03T07:35:00.654Z,70.23
2018-11-03T07:37:29.168Z,70.36
2018-11-03T07:39:57.643Z,70.21
2018-11-03T07:42:26.223Z,70.01
2018-11-03T07:44:54.633Z,69.83
2018-11-03T07:47:23.118Z,69.77
2018-11-03T07:49:51.605Z,70.40
2018-11-03T07:52:20.088Z,69.93
2018-11-03T07:54:48.641Z,70.25
2018-11-03T07:57:17.082Z,69.85
2018-11-03T07:59:45.610Z,69.92
2018-11-03T08:02:14.095Z,69.84
2018-11-03T08:04:42.602Z,70.26
2018-11-03T08:07:11.107Z,69.65
2018-11-03T08:09:39.598Z,70.18
2018-11-03T08:12:08.066Z,69.80
2018-11-03T08:14:36.565Z,70.18
2018-11-03T08:17:05.063Z,69.87
2018-11-03T08:19:33.545Z,70.12
2018-11-03T08:22:02.025Z,69.67
2018-11-03T08:24:30.547Z,70.26
2018-11-03T08:26:59.036Z,69.73
2018-11-03T08:29:27.527Z,69.81
2018-11-03T08:31:56.005Z,69.95
2018-11-03T08:34:24.485Z,69.73
2018-11-03T08:36:52.980Z,69.64
2018-11-03T08:39:21.505Z,70.05
2018-11-03T08:41:49.991Z,69.96
2018-11-03T08:44:18.471Z,69.49
2018-11-03T08:46:46.962Z,69.60
2018-11-03T08:49:15.479Z,70.11
2018-11-03T08:51:43.973Z,69.85
2018-11-03T08:54:12.482Z,69.87
2018-11-03T08:56:40.983Z,69.60
2018-11-03T08:59:09.527Z,69.66
2018-11-03T09:01:38.027Z,69.83
2018-11-03T09:04:06.837Z,69.36
2018-11-03T09:06:35.307Z,69.25
2018-11-03T09:09:03.993Z,69.42
2018-11-03T09:11:32.469Z,69.54
2018-11-03T09:14:00.956Z,69.27
2018-11-03T09:16:29.435Z,69.25
2018-11-03T09:18:57.925Z,69.49
2018-11-03T09:21:26.446Z,69.88
2018-11-03T09:23:54.930Z,69.25
2018-11-03T09:26:23.456Z,69.74
2018-11-03T09:28:51.996Z,69.17
2018-11-03T09:31:20.481Z,69.84
2018-11-03T09:33:48.981Z,69.86
2018-11-03T09:36:17.459Z,69.34
2018-11-03T09:38:46.049Z,69.83
2018-11-03T09:41:14.482Z,69.42
2018-11-03T09:43:42.967Z,70.08
2018-11-03T09:46:11.434Z,69.81
2018-11-03T09:48:39.950Z,69.45
2018-11-03T09:51:08.500Z,69.85
2018-11-03T09:53:36.919Z,69.45
2018-11-03T09:56:05.624Z,69.83
2018-11-03T09:58:34.151Z,69.38
2018-11-03T10:01:02.716Z,69.98
2018-11-03T10:03:31.254Z,69.41
2018-11-03T10:05:59.730Z,69.41
2018-11-03T10:08:28.204Z,69.89
2018-11-03T10:10:56.682Z,69.37
2018-11-03T10:13:25.163Z,69.35
2018-11-03T10:15:53.707Z,69.72
2018-11-03T10:18:22.166Z,69.70
2018-11-03T10:20:50.674Z,69.42
2018-11-03T10:23:19.150Z,69.40
2018-11-03T10:25:47.626Z,69.38
2018-11-03T10:28:16.101Z,69.22
2018-11-03T10:30:44.620Z,69.21
2018-11-03T10:33:13.112Z,69.46
2018-11-03T10:35:41.698Z,69.78
2018-11-03T10:38:10.168Z,69.35
2018-11-03T10:40:38.637Z,69.29
2018-11-03T10:43:07.145Z,69.88
2018-11-03T10:45:35.632Z,69.37
2018-11-03T10:48:04.122Z,69.55
2018-11-03T10:50:32.607Z,69.34
2018-11-03T10:53:01.138Z,69.25
2018-11-03T10:55:29.602Z,69.32
2018-11-03T10:57:58.089Z,69.94
2018-11-03T11:00:31.708Z,69.31
2018-11-03T11:03:05.246Z,69.39
2018-11-03T11:06:41.878Z,69.43
2018-11-03T11:09:15.591Z,69.40
2018-11-03T11:12:51.022Z,69.38
2018-11-03T11:15:19.507Z,69.49
2018-11-03T11:17:48.039Z,69.41
2018-11-03T11:20:16.511Z,69.71
2018-11-03T11:22:44.996Z,69.69
2018-11-03T11:25:13.505Z,69.98
2018-11-03T11:27:41.970Z,69.78
2018-11-03T11:30:11.594Z,69.76
2018-11-03T11:32:40.193Z,70.00
2018-11-03T11:35:08.700Z,69.93
2018-11-03T11:37:37.438Z,69.66
2018-11-03T11:40:06.535Z,69.33
2018-11-03T11:42:35.027Z,69.90
2018-11-03T11:45:03.543Z,69.22
2018-11-03T11:47:32.022Z,69.64
2018-11-03T11:50:00.504Z,69.38
2018-11-03T11:52:28.991Z,69.75
2018-11-03T11:54:57.615Z,69.32
2018-11-03T11:57:26.012Z,69.26
2018-11-03T11:59:54.484Z,69.38
2018-11-03T12:02:22.985Z,69.25
2018-11-03T12:04:51.433Z,69.29
2018-11-03T12:07:19.932Z,69.50
2018-11-03T12:09:48.469Z,69.87
2018-11-03T12:12:16.929Z,69.27
2018-11-03T12:14:45.519Z,69.74
2018-11-03T12:17:14.003Z,69.15
2018-11-03T12:19:42.473Z,69.54
2018-11-03T12:22:10.939Z,69.01
2018-11-03T12:24:39.423Z,68.88
2018-11-03T12:27:07.928Z,69.25
2018-11-03T12:29:36.422Z,69.68
2018-11-03T12:32:05.204Z,69.59
2018-11-03T12:34:33.711Z,69.59
2018-11-03T12:37:02.188Z,69.29
2018-11-03T12:39:30.658Z,68.73
2018-11-03T12:41:59.169Z,68.79
2018-11-03T12:44:27.659Z,68.57
2018-11-03T12:46:56.163Z,68.03
2018-11-03T12:49:24.637Z,68.33
2018-11-03T12:51:53.121Z,67.95
2018-11-03T12:54:21.623Z,68.37
2018-11-03T12:56:50.127Z,67.93
2018-11-03T12:59:18.667Z,68.05
2018-11-03T13:01:47.139Z,68.15
2018-11-03T13:04:15.605Z,68.63
2018-11-03T13:06:44.111Z,68.71
2018-11-03T13:09:12.633Z,68.75
2018-11-03T13:11:41.340Z,68.48
2018-11-03T13:14:09.816Z,68.16
2018-11-03T13:16:38.292Z,68.19
2018-11-03T13:19:06.835Z,68.52
2018-11-03T13:21:35.317Z,68.20
2018-11-03T13:24:03.783Z,68.40
2018-11-03T13:26:32.529Z,68.90
2018-11-03T13:29:01.085Z,68.32
2018-11-03T13:31:29.550Z,68.48
2018-11-03T13:33:58.013Z,69.04
2018-11-03T13:36:26.510Z,69.05
2018-11-03T13:38:54.987Z,68.76
2018-11-03T13:41:23.453Z,68.55
2018-11-03T13:43:51.916Z,68.65
2018-11-03T13:46:20.379Z,68.56
2018-11-03T13:48:48.860Z,69.04
2018-11-03T13:51:17.328Z,69.05
2018-11-03T13:53:45.831Z,68.69
2018-11-03T13:56:14.314Z,68.71
2018-11-03T13:58:42.776Z,69.26
2018-11-03T14:01:11.239Z,69.28
2018-11-03T14:03:39.758Z,68.47
2018-11-03T14:06:08.222Z,69.20
2018-11-03T14:08:36.743Z,69.27
2018-11-03T14:11:05.328Z,69.40
2018-11-03T14:13:33.804Z,69.36
2018-11-03T14:16:02.271Z,69.44
2018-11-03T14:18:30.740Z,69.05
2018-11-03T14:20:59.228Z,69.42
2018-11-03T14:23:27.719Z,69.24
2018-11-03T14:25:56.187Z,69.13
2018-11-03T14:28:24.898Z,68.87
2018-11-03T14:30:53.402Z,69.35
2018-11-03T14:33:21.896Z,69.10
2018-11-03T14:35:50.342Z,69.52
2018-11-03T14:38:18.819Z,68.97
2018-11-03T14:40:47.296Z,69.66
2018-11-03T14:43:15.768Z,69.61
2018-11-03T14:45:44.217Z,69.28
2018-11-03T14:48:12.722Z,69.14
2018-11-03T14:50:41.230Z,69.70
2018-11-03T14:53:09.715Z,69.08
2018-11-03T14:55:38.182Z,69.68
2018-11-03T14:58:06.647Z,69.75
2018-11-03T15:00:35.943Z,69.69
2018-11-03T15:03:04.844Z,69.68
2018-11-03T15:05:33.320Z,69.80
2018-11-03T15:08:01.811Z,69.55
2018-11-03T15:10:30.272Z,69.41
2018-11-03T15:12:58.748Z,69.84
2018-11-03T15:15:27.217Z,69.87
2018-11-03T15:17:55.700Z,69.68
2018-11-03T15:20:24.156Z,69.19
2018-11-03T15:22:52.619Z,69.14
2018-11-03T15:25:21.116Z,69.31
2018-11-03T15:27:50.454Z,69.69
2018-11-03T15:30:18.936Z,69.87
2018-11-03T15:32:47.401Z,68.43
2018-11-03T15:35:15.868Z,68.89
2018-11-03T15:37:44.355Z,68.75
2018-11-03T15:40:14.311Z,68.16
2018-11-03T15:42:43.194Z,68.03
2018-11-03T15:45:14.863Z,68.30
2018-11-03T15:47:43.839Z,68.21
2018-11-03T15:50:13.355Z,68.54
2018-11-03T15:52:42.148Z,68.14
2018-11-03T15:55:10.682Z,68.18
2018-11-03T15:57:39.166Z,68.71
2018-11-03T16:00:10.740Z,68.16
2018-11-03T16:02:39.250Z,68.12
2018-11-03T16:05:07.709Z,68.19
2018-11-03T16:07:36.187Z,68.07
2018-11-03T16:10:05.519Z,68.54
2018-11-03T16:12:33.994Z,68.58
2018-11-03T16:15:02.512Z,68.32
2018-11-03T16:17:31.013Z,68.26
2018-11-03T16:19:59.487Z,68.21
2018-11-03T16:22:28.018Z,68.36
2018-11-03T16:24:56.499Z,68.78
2018-11-03T16:27:24.975Z,67.87
2018-11-03T16:29:53.567Z,67.96
2018-11-03T16:32:22.353Z,67.82
2018-11-03T16:34:50.632Z,67.93
2018-11-03T16:37:19.109Z,67.89
2018-11-03T16:39:47.577Z,67.80
2018-11-03T16:42:16.075Z,68.14
2018-11-03T16:44:44.679Z,68.31
2018-11-03T16:47:13.183Z,67.78
2018-11-03T16:49:42.362Z,67.86
2018-11-03T16:52:10.830Z,67.80
2018-11-03T16:54:39.321Z,67.62
2018-11-03T16:57:07.806Z,68.31
2018-11-03T16:59:36.298Z,67.91
2018-11-03T17:02:05.061Z,68.29
2018-11-03T17:04:33.540Z,68.05
2018-11-03T17:07:02.126Z,67.79
2018-11-03T17:09:30.526Z,68.47
2018-11-03T17:11:58.999Z,67.82
2018-11-03T17:14:27.478Z,68.33
2018-11-03T17:16:56.025Z,68.21
2018-11-03T17:19:24.610Z,67.76
2018-11-03T17:21:53.105Z,68.10
2018-11-03T17:24:21.599Z,67.73
2018-11-03T17:26:50.117Z,67.86
2018-11-03T17:29:18.586Z,68.25
2018-11-03T17:31:47.051Z,67.79
2018-11-03T17:34:15.539Z,68.65
2018-11-03T17:36:44.015Z,68.04
2018-11-03T17:39:12.682Z,68.35
2018-11-03T17:41:41.155Z,68.63
2018-11-03T17:44:09.669Z,68.34
2018-11-03T17:46:38.143Z,68.88
2018-11-03T17:49:06.898Z,68.77
2018-11-03T17:51:35.410Z,68.70
2018-11-03T17:54:03.878Z,69.08
2018-11-03T17:56:32.491Z,68.04
2018-11-03T17:59:00.956Z,68.51
2018-11-03T18:01:29.560Z,68.34
2018-11-03T18:03:57.982Z,68.04
2018-11-03T18:06:26.480Z,68.48
2018-11-03T18:08:54.983Z,68.55
2018-11-03T18:11:23.476Z,68.06
2018-11-03T18:13:51.955Z,67.88
2018-11-03T18:16:20.430Z,68.23
2018-11-03T18:18:48.893Z,67.70
2018-11-03T18:21:17.361Z,68.32
2018-11-03T18:23:45.844Z,68.36
2018-11-03T18:26:14.443Z,68.42
2018-11-03T18:28:42.847Z,68.52
2018-11-03T18:31:11.331Z,69.21
2018-11-03T18:33:39.835Z,68.93
2018-11-03T18:36:08.324Z,68.45
2018-11-03T18:38:36.799Z,68.97
2018-11-03T18:41:05.297Z,68.27
2018-11-03T18:43:33.796Z,68.62
2018-11-03T18:46:02.286Z,68.42
2018-11-03T18:48:30.947Z,68.58
2018-11-03T18:50:59.431Z,68.87
2018-11-03T18:53:27.931Z,68.70
2018-11-03T18:55:56.411Z,68.84
2018-11-03T18:58:24.914Z,68.61
2018-11-03T19:00:53.400Z,68.66
2018-11-03T19:03:21.940Z,68.62
2018-11-03T19:05:50.458Z,68.20
2018-11-03T19:08:18.940Z,68.58
2018-11-03T19:10:47.457Z,68.59
2018-11-03T19:13:15.958Z,68.27
2018-11-03T19:15:44.468Z,68.19
2018-11-03T19:18:13.030Z,68.68
2018-11-03T19:20:41.520Z,67.81
2018-11-03T19:23:10.040Z,67.80
2018-11-03T19:25:38.511Z,67.93
2018-11-03T19:28:06.970Z,68.29
2018-11-03T19:30:35.431Z,67.79
2018-11-03T19:33:03.964Z,68.06
2018-11-03T19:35:32.448Z,67.73
2018-11-03T19:38:00.932Z,68.24
2018-11-03T19:40:29.409Z,67.81
2018-11-03T19:42:57.869Z,67.84
2018-11-03T19:45:26.374Z,67.69
2018-11-03T19:47:54.832Z,67.71
2018-11-03T19:50:23.311Z,67.69
2018-11-03T19:52:51.778Z,67.64
2018-11-03T19:55:20.281Z,67.74
2018-11-03T19:57:48.756Z,67.99
2018-11-03T20:00:17.215Z,68.32
2018-11-03T20:02:46.379Z,67.58
2018-11-03T20:05:14.806Z,67.78
2018-11-03T20:07:44.176Z,68.29
2018-11-03T20:10:13.001Z,67.79
2018-11-03T20:12:41.487Z,68.11
2018-11-03T20:15:11.176Z,67.74
2018-11-03T20:17:39.643Z,67.69
2018-11-03T20:20:10.082Z,67.64
2018-11-03T20:22:38.566Z,67.78
2018-11-03T20:25:08.071Z,67.74
2018-11-03T20:27:36.747Z,67.70
2018-11-03T20:30:06.989Z,67.77
2018-11-03T20:32:35.458Z,68.17
2018-11-03T20:35:03.936Z,68.69
2018-11-03T20:37:32.443Z,68.34
2018-11-03T20:40:00.926Z,67.64
2018-11-03T20:42:29.417Z,68.20
2018-11-03T20:44:57.893Z,68.60
2018-11-03T20:47:26.365Z,68.05
2018-11-03T20:49:54.855Z,68.12
2018-11-03T20:52:23.356Z,67.57
2018-11-03T20:54:51.865Z,67.65
2018-11-03T20:57:20.368Z,67.50
2018-11-03T20:59:48.842Z,67.52
2018-11-03T21:02:17.335Z,67.44
2018-11-03T21:04:45.844Z,67.65
2018-11-03T21:07:14.374Z,67.69
2018-11-03T21:09:42.850Z,67.53
2018-11-03T21:12:11.574Z,68.18
2018-11-03T21:14:40.056Z,68.03
2018-11-03T21:17:08.531Z,67.88
2018-11-03T21:19:37.011Z,67.96
2018-11-03T21:22:09.157Z,67.82
2018-11-03T21:24:37.960Z,67.82
2018-11-03T21:27:07.878Z,67.97
2018-11-03T21:29:36.409Z,68.12
2018-11-03T21:32:05.299Z,67.87
2018-11-03T21:34:33.742Z,67.89
2018-11-03T21:37:02.242Z,67.81
2018-11-03T21:39:30.736Z,67.58
2018-11-03T21:41:59.214Z,67.36
2018-11-03T21:44:27.695Z,67.32
2018-11-03T21:46:56.313Z,67.78
2018-11-03T21:49:24.808Z,67.89
2018-11-03T21:51:53.311Z,67.30
2018-11-03T21:54:21.826Z,67.21
2018-11-03T21:56:50.470Z,68.01
2018-11-03T21:59:18.983Z,67.95
2018-11-03T22:01:47.458Z,67.85
2018-11-03T22:04:15.978Z,67.86
2018-11-03T22:06:44.471Z,67.84
2018-11-03T22:09:13.787Z,67.63
2018-11-03T22:11:42.305Z,68.33
2018-11-03T22:14:10.822Z,67.19
2018-11-03T22:16:39.320Z,67.66
2018-11-03T22:19:07.817Z,67.77
2018-11-03T22:21:36.341Z,68.29
2018-11-03T22:24:04.990Z,67.97
2018-11-03T22:26:33.491Z,67.35
2018-11-03T22:29:01.988Z,67.36
2018-11-03T22:31:30.863Z,67.28
2018-11-03T22:33:59.372Z,67.53
2018-11-03T22:36:27.887Z,67.72
2018-11-03T22:38:56.598Z,67.15
2018-11-03T22:41:25.082Z,67.95
2018-11-03T22:43:53.570Z,67.60
2018-11-03T22:46:22.081Z,67.83
2018-11-03T22:48:50.576Z,68.33
2018-11-03T22:51:19.118Z,67.65
2018-11-03T22:53:47.562Z,67.26
2018-11-03T22:56:16.050Z,67.86
2018-11-03T22:58:44.544Z,67.65
2018-11-03T23:01:13.035Z,67.25
2018-11-03T23:03:41.519Z,67.43
2018-11-03T23:06:10.001Z,67.30
2018-11-03T23:08:38.555Z,67.22
2018-11-03T23:11:07.044Z,67.21
2018-11-03T23:13:35.526Z,67.26
2018-11-03T23:16:04.047Z,67.22
2018-11-03T23:18:32.525Z,67.56
2018-11-03T23:21:01.077Z,67.32
2018-11-03T23:23:29.580Z,67.60
2018-11-03T23:25:58.061Z,67.66
2018-11-03T23:28:26.582Z,67.15
2018-11-03T23:30:55.109Z,67.65
2018-11-03T23:33:23.586Z,67.53
2018-11-03T23:35:52.107Z,67.37
2018-11-03T23:38:20.573Z,67.06
2018-11-03T23:40:49.055Z,67.23
2018-11-03T23:43:17.537Z,67.15
2018-11-03T23:45:46.029Z,67.07
2018-11-03T23:48:14.511Z,66.98
2018-11-03T23:50:43.026Z,67.25
2018-11-03T23:53:11.588Z,67.11
2018-11-03T23:55:40.014Z,66.99
2018-11-03T23:58:08.499Z,67.03
